sensor_id;sensor_type;location;lat;lon;timestamp;pressure;altitude;pressure_sealevel;temperature
14851;BMP180;7517;48.400;11.770;2023-02-16T00:01:51;97410.00;;;4.80
14851;BMP180;7517;48.400;11.770;2023-02-16T00:04:22;97406.00;;;4.70
14851;BMP180;7517;48.400;11.770;2023-02-16T00:06:51;97395.00;;;4.60
14851;BMP180;7517;48.400;11.770;2023-02-16T00:09:20;97401.00;;;4.60
14851;BMP180;7517;48.400;11.770;2023-02-16T00:11:49;97390.00;;;4.50
14851;BMP180;7517;48.400;11.770;2023-02-16T00:14:37;97396.00;;;4.40
14851;BMP180;7517;48.400;11.770;2023-02-16T00:17:09;97395.00;;;4.40
14851;BMP180;7517;48.400;11.770;2023-02-16T00:19:39;97394.00;;;4.40
14851;BMP180;7517;48.400;11.770;2023-02-16T00:22:08;97390.00;;;4.50
14851;BMP180;7517;48.400;11.770;2023-02-16T00:24:36;97388.00;;;4.50
14851;BMP180;7517;48.400;11.770;2023-02-16T00:27:14;97384.00;;;4.50
14851;BMP180;7517;48.400;11.770;2023-02-16T00:29:43;97382.00;;;4.50
14851;BMP180;7517;48.400;11.770;2023-02-16T00:32:12;97396.00;;;4.50
14851;BMP180;7517;48.400;11.770;2023-02-16T00:34:41;97383.00;;;4.50
14851;BMP180;7517;48.400;11.770;2023-02-16T00:37:11;97388.00;;;4.50
14851;BMP180;7517;48.400;11.770;2023-02-16T00:39:40;97382.00;;;4.50
14851;BMP180;7517;48.400;11.770;2023-02-16T00:42:16;97389.00;;;4.60
14851;BMP180;7517;48.400;11.770;2023-02-16T00:44:47;97387.00;;;4.60
14851;BMP180;7517;48.400;11.770;2023-02-16T00:47:24;97380.00;;;4.60
14851;BMP180;7517;48.400;11.770;2023-02-16T00:49:53;97381.00;;;4.60
14851;BMP180;7517;48.400;11.770;2023-02-16T00:52:34;97372.00;;;4.60
14851;BMP180;7517;48.400;11.770;2023-02-16T00:55:08;97369.00;;;4.50
14851;BMP180;7517;48.400;11.770;2023-02-16T00:57:40;97376.00;;;4.50
14851;BMP180;7517;48.400;11.770;2023-02-16T01:00:15;97371.00;;;4.50
14851;BMP180;7517;48.400;11.770;2023-02-16T01:02:48;97380.00;;;4.50
14851;BMP180;7517;48.400;11.770;2023-02-16T01:05:16;97377.00;;;4.50
14851;BMP180;7517;48.400;11.770;2023-02-16T01:07:44;97365.00;;;4.50
14851;BMP180;7517;48.400;11.770;2023-02-16T01:10:29;97372.00;;;4.50
14851;BMP180;7517;48.400;11.770;2023-02-16T01:13:31;97357.00;;;4.40
14851;BMP180;7517;48.400;11.770;2023-02-16T01:16:01;97372.00;;;4.40
14851;BMP180;7517;48.400;11.770;2023-02-16T01:18:31;97368.00;;;4.40
14851;BMP180;7517;48.400;11.770;2023-02-16T01:20:58;97369.00;;;4.40
14851;BMP180;7517;48.400;11.770;2023-02-16T01:23:26;97372.00;;;4.50
14851;BMP180;7517;48.400;11.770;2023-02-16T01:25:55;97370.00;;;4.40
14851;BMP180;7517;48.400;11.770;2023-02-16T01:28:24;97368.00;;;4.40
14851;BMP180;7517;48.400;11.770;2023-02-16T01:30:53;97367.00;;;4.40
14851;BMP180;7517;48.400;11.770;2023-02-16T01:33:20;97363.00;;;4.40
14851;BMP180;7517;48.400;11.770;2023-02-16T01:35:50;97364.00;;;4.40
14851;BMP180;7517;48.400;11.770;2023-02-16T01:38:20;97371.00;;;4.40
14851;BMP180;7517;48.400;11.770;2023-02-16T01:40:56;97367.00;;;4.40
14851;BMP180;7517;48.400;11.770;2023-02-16T01:43:32;97359.00;;;4.30
14851;BMP180;7517;48.400;11.770;2023-02-16T01:46:12;97366.00;;;4.30
14851;BMP180;7517;48.400;11.770;2023-02-16T01:48:41;97354.00;;;4.30
14851;BMP180;7517;48.400;11.770;2023-02-16T01:51:18;97355.00;;;4.30
14851;BMP180;7517;48.400;11.770;2023-02-16T01:53:51;97350.00;;;4.20
14851;BMP180;7517;48.400;11.770;2023-02-16T01:56:30;97349.00;;;4.20
14851;BMP180;7517;48.400;11.770;2023-02-16T01:59:03;97348.00;;;4.10
14851;BMP180;7517;48.400;11.770;2023-02-16T02:01:51;97346.00;;;4.10
14851;BMP180;7517;48.400;11.770;2023-02-16T02:04:26;97347.00;;;4.00
14851;BMP180;7517;48.400;11.770;2023-02-16T02:07:24;97352.00;;;4.00
14851;BMP180;7517;48.400;11.770;2023-02-16T02:10:02;97352.00;;;4.00
14851;BMP180;7517;48.400;11.770;2023-02-16T02:12:37;97343.00;;;4.00
14851;BMP180;7517;48.400;11.770;2023-02-16T02:15:06;97341.00;;;4.00
14851;BMP180;7517;48.400;11.770;2023-02-16T02:17:35;97335.00;;;4.00
14851;BMP180;7517;48.400;11.770;2023-02-16T02:20:12;97324.00;;;4.00
14851;BMP180;7517;48.400;11.770;2023-02-16T02:23:32;97330.00;;;4.10
14851;BMP180;7517;48.400;11.770;2023-02-16T02:26:57;97322.00;;;4.00
14851;BMP180;7517;48.400;11.770;2023-02-16T02:29:58;97331.00;;;4.10
14851;BMP180;7517;48.400;11.770;2023-02-16T02:32:44;97324.00;;;4.10
14851;BMP180;7517;48.400;11.770;2023-02-16T02:35:28;97330.00;;;4.10
14851;BMP180;7517;48.400;11.770;2023-02-16T02:38:09;97319.00;;;4.10
14851;BMP180;7517;48.400;11.770;2023-02-16T02:40:50;97326.00;;;4.20
14851;BMP180;7517;48.400;11.770;2023-02-16T02:43:25;97338.00;;;4.20
14851;BMP180;7517;48.400;11.770;2023-02-16T02:45:57;97330.00;;;4.20
14851;BMP180;7517;48.400;11.770;2023-02-16T02:48:30;97325.00;;;4.10
14851;BMP180;7517;48.400;11.770;2023-02-16T02:51:00;97322.00;;;4.10
14851;BMP180;7517;48.400;11.770;2023-02-16T02:53:52;97321.00;;;4.10
14851;BMP180;7517;48.400;11.770;2023-02-16T02:56:45;97335.00;;;4.00
14851;BMP180;7517;48.400;11.770;2023-02-16T02:59:34;97337.00;;;4.00
14851;BMP180;7517;48.400;11.770;2023-02-16T03:02:23;97338.00;;;4.00
14851;BMP180;7517;48.400;11.770;2023-02-16T03:04:52;97334.00;;;4.00
14851;BMP180;7517;48.400;11.770;2023-02-16T03:07:24;97327.00;;;4.00
14851;BMP180;7517;48.400;11.770;2023-02-16T03:10:12;97327.00;;;4.00
14851;BMP180;7517;48.400;11.770;2023-02-16T03:13:00;97322.00;;;4.00
14851;BMP180;7517;48.400;11.770;2023-02-16T03:15:30;97321.00;;;4.00
14851;BMP180;7517;48.400;11.770;2023-02-16T03:18:00;97312.00;;;4.00
14851;BMP180;7517;48.400;11.770;2023-02-16T03:20:46;97332.00;;;4.00
14851;BMP180;7517;48.400;11.770;2023-02-16T03:23:31;97323.00;;;4.00
14851;BMP180;7517;48.400;11.770;2023-02-16T03:26:17;97320.00;;;4.00
14851;BMP180;7517;48.400;11.770;2023-02-16T03:29:04;97319.00;;;4.00
14851;BMP180;7517;48.400;11.770;2023-02-16T03:31:46;97327.00;;;4.00
14851;BMP180;7517;48.400;11.770;2023-02-16T03:34:14;97328.00;;;4.10
14851;BMP180;7517;48.400;11.770;2023-02-16T03:36:46;97323.00;;;4.10
14851;BMP180;7517;48.400;11.770;2023-02-16T03:39:14;97327.00;;;4.00
14851;BMP180;7517;48.400;11.770;2023-02-16T03:41:45;97335.00;;;4.00
14851;BMP180;7517;48.400;11.770;2023-02-16T03:44:13;97338.00;;;3.90
14851;BMP180;7517;48.400;11.770;2023-02-16T03:46:40;97349.00;;;4.00
14851;BMP180;7517;48.400;11.770;2023-02-16T03:49:10;97348.00;;;4.00
14851;BMP180;7517;48.400;11.770;2023-02-16T03:51:37;97341.00;;;4.00
14851;BMP180;7517;48.400;11.770;2023-02-16T03:54:05;97349.00;;;4.00
14851;BMP180;7517;48.400;11.770;2023-02-16T03:56:32;97354.00;;;4.00
14851;BMP180;7517;48.400;11.770;2023-02-16T03:58:59;97356.00;;;4.00
14851;BMP180;7517;48.400;11.770;2023-02-16T04:01:27;97354.00;;;4.00
14851;BMP180;7517;48.400;11.770;2023-02-16T04:03:54;97353.00;;;4.00
14851;BMP180;7517;48.400;11.770;2023-02-16T04:06:23;97348.00;;;4.00
14851;BMP180;7517;48.400;11.770;2023-02-16T04:08:50;97352.00;;;4.00
14851;BMP180;7517;48.400;11.770;2023-02-16T04:11:17;97356.00;;;4.00
14851;BMP180;7517;48.400;11.770;2023-02-16T04:14:02;97360.00;;;4.00
14851;BMP180;7517;48.400;11.770;2023-02-16T04:16:29;97350.00;;;3.90
14851;BMP180;7517;48.400;11.770;2023-02-16T04:18:59;97356.00;;;3.90
14851;BMP180;7517;48.400;11.770;2023-02-16T04:21:28;97353.00;;;3.90
14851;BMP180;7517;48.400;11.770;2023-02-16T04:23:56;97354.00;;;3.90
14851;BMP180;7517;48.400;11.770;2023-02-16T04:26:23;97364.00;;;3.80
14851;BMP180;7517;48.400;11.770;2023-02-16T04:28:50;97350.00;;;3.80
14851;BMP180;7517;48.400;11.770;2023-02-16T04:31:18;97360.00;;;3.80
14851;BMP180;7517;48.400;11.770;2023-02-16T04:33:45;97355.00;;;3.80
14851;BMP180;7517;48.400;11.770;2023-02-16T04:36:13;97345.00;;;3.80
14851;BMP180;7517;48.400;11.770;2023-02-16T04:38:42;97347.00;;;3.80
14851;BMP180;7517;48.400;11.770;2023-02-16T04:41:09;97330.00;;;3.80
14851;BMP180;7517;48.400;11.770;2023-02-16T04:43:36;97335.00;;;3.70
14851;BMP180;7517;48.400;11.770;2023-02-16T04:46:04;97318.00;;;3.70
14851;BMP180;7517;48.400;11.770;2023-02-16T04:48:33;97326.00;;;3.60
14851;BMP180;7517;48.400;11.770;2023-02-16T04:51:03;97317.00;;;3.60
14851;BMP180;7517;48.400;11.770;2023-02-16T04:53:30;97321.00;;;3.60
14851;BMP180;7517;48.400;11.770;2023-02-16T04:55:59;97315.00;;;3.50
14851;BMP180;7517;48.400;11.770;2023-02-16T04:58:27;97320.00;;;3.50
14851;BMP180;7517;48.400;11.770;2023-02-16T05:00:54;97326.00;;;3.60
14851;BMP180;7517;48.400;11.770;2023-02-16T05:03:22;97325.00;;;3.60
14851;BMP180;7517;48.400;11.770;2023-02-16T05:05:49;97337.00;;;3.60
14851;BMP180;7517;48.400;11.770;2023-02-16T05:08:16;97329.00;;;3.60
14851;BMP180;7517;48.400;11.770;2023-02-16T05:10:44;97341.00;;;3.60
14851;BMP180;7517;48.400;11.770;2023-02-16T05:13:33;97332.00;;;3.60
14851;BMP180;7517;48.400;11.770;2023-02-16T05:16:20;97341.00;;;3.50
14851;BMP180;7517;48.400;11.770;2023-02-16T05:18:48;97337.00;;;3.50
14851;BMP180;7517;48.400;11.770;2023-02-16T05:21:15;97339.00;;;3.40
14851;BMP180;7517;48.400;11.770;2023-02-16T05:23:59;97334.00;;;3.40
14851;BMP180;7517;48.400;11.770;2023-02-16T05:26:27;97337.00;;;3.40
14851;BMP180;7517;48.400;11.770;2023-02-16T05:28:57;97339.00;;;3.30
14851;BMP180;7517;48.400;11.770;2023-02-16T05:31:26;97336.00;;;3.40
14851;BMP180;7517;48.400;11.770;2023-02-16T05:33:56;97347.00;;;3.40
14851;BMP180;7517;48.400;11.770;2023-02-16T05:36:24;97348.00;;;3.40
14851;BMP180;7517;48.400;11.770;2023-02-16T05:38:51;97358.00;;;3.40
14851;BMP180;7517;48.400;11.770;2023-02-16T05:41:20;97354.00;;;3.50
14851;BMP180;7517;48.400;11.770;2023-02-16T05:43:53;97361.00;;;3.50
14851;BMP180;7517;48.400;11.770;2023-02-16T05:46:25;97363.00;;;3.50
14851;BMP180;7517;48.400;11.770;2023-02-16T05:48:52;97357.00;;;3.50
14851;BMP180;7517;48.400;11.770;2023-02-16T05:51:22;97354.00;;;3.50
14851;BMP180;7517;48.400;11.770;2023-02-16T05:53:49;97364.00;;;3.60
14851;BMP180;7517;48.400;11.770;2023-02-16T05:56:17;97366.00;;;3.60
14851;BMP180;7517;48.400;11.770;2023-02-16T05:58:45;97357.00;;;3.60
14851;BMP180;7517;48.400;11.770;2023-02-16T06:01:14;97358.00;;;3.60
14851;BMP180;7517;48.400;11.770;2023-02-16T06:03:43;97357.00;;;3.60
14851;BMP180;7517;48.400;11.770;2023-02-16T06:06:11;97363.00;;;3.60
14851;BMP180;7517;48.400;11.770;2023-02-16T06:08:38;97367.00;;;3.60
14851;BMP180;7517;48.400;11.770;2023-02-16T06:11:06;97364.00;;;3.60
14851;BMP180;7517;48.400;11.770;2023-02-16T06:13:53;97374.00;;;3.60
14851;BMP180;7517;48.400;11.770;2023-02-16T06:16:24;97370.00;;;3.60
14851;BMP180;7517;48.400;11.770;2023-02-16T06:18:53;97376.00;;;3.60
14851;BMP180;7517;48.400;11.770;2023-02-16T06:21:22;97380.00;;;3.50
14851;BMP180;7517;48.400;11.770;2023-02-16T06:23:52;97376.00;;;3.50
14851;BMP180;7517;48.400;11.770;2023-02-16T06:26:19;97381.00;;;3.60
14851;BMP180;7517;48.400;11.770;2023-02-16T06:28:47;97382.00;;;3.60
14851;BMP180;7517;48.400;11.770;2023-02-16T06:31:15;97382.00;;;3.60
14851;BMP180;7517;48.400;11.770;2023-02-16T06:33:42;97387.00;;;3.60
14851;BMP180;7517;48.400;11.770;2023-02-16T06:36:11;97388.00;;;3.60
14851;BMP180;7517;48.400;11.770;2023-02-16T06:38:39;97407.00;;;3.70
14851;BMP180;7517;48.400;11.770;2023-02-16T06:41:06;97407.00;;;3.70
14851;BMP180;7517;48.400;11.770;2023-02-16T06:43:33;97409.00;;;3.80
14851;BMP180;7517;48.400;11.770;2023-02-16T06:46:01;97408.00;;;3.80
14851;BMP180;7517;48.400;11.770;2023-02-16T06:48:28;97410.00;;;3.90
14851;BMP180;7517;48.400;11.770;2023-02-16T06:50:56;97409.00;;;4.00
14851;BMP180;7517;48.400;11.770;2023-02-16T06:53:25;97408.00;;;4.10
14851;BMP180;7517;48.400;11.770;2023-02-16T06:55:52;97404.00;;;4.10
14851;BMP180;7517;48.400;11.770;2023-02-16T06:58:21;97413.00;;;4.20
14851;BMP180;7517;48.400;11.770;2023-02-16T07:00:48;97407.00;;;4.10
14851;BMP180;7517;48.400;11.770;2023-02-16T07:03:15;97406.00;;;4.10
14851;BMP180;7517;48.400;11.770;2023-02-16T07:05:43;97409.00;;;4.20
14851;BMP180;7517;48.400;11.770;2023-02-16T07:08:10;97405.00;;;4.20
14851;BMP180;7517;48.400;11.770;2023-02-16T07:10:42;97408.00;;;4.20
14851;BMP180;7517;48.400;11.770;2023-02-16T07:13:10;97415.00;;;4.20
14851;BMP180;7517;48.400;11.770;2023-02-16T07:15:37;97424.00;;;4.20
14851;BMP180;7517;48.400;11.770;2023-02-16T07:18:05;97426.00;;;4.30
14851;BMP180;7517;48.400;11.770;2023-02-16T07:20:32;97422.00;;;4.30
14851;BMP180;7517;48.400;11.770;2023-02-16T07:22:59;97429.00;;;4.40
14851;BMP180;7517;48.400;11.770;2023-02-16T07:25:27;97420.00;;;4.40
14851;BMP180;7517;48.400;11.770;2023-02-16T07:27:56;97427.00;;;4.40
14851;BMP180;7517;48.400;11.770;2023-02-16T07:30:23;97419.00;;;4.40
14851;BMP180;7517;48.400;11.770;2023-02-16T07:32:51;97417.00;;;4.40
14851;BMP180;7517;48.400;11.770;2023-02-16T07:35:18;97418.00;;;4.50
14851;BMP180;7517;48.400;11.770;2023-02-16T07:37:47;97424.00;;;4.40
14851;BMP180;7517;48.400;11.770;2023-02-16T07:40:14;97425.00;;;4.40
14851;BMP180;7517;48.400;11.770;2023-02-16T07:42:42;97441.00;;;4.40
14851;BMP180;7517;48.400;11.770;2023-02-16T07:45:10;97427.00;;;4.30
14851;BMP180;7517;48.400;11.770;2023-02-16T07:47:37;97447.00;;;4.30
14851;BMP180;7517;48.400;11.770;2023-02-16T07:50:07;97448.00;;;4.30
14851;BMP180;7517;48.400;11.770;2023-02-16T07:52:34;97442.00;;;4.30
14851;BMP180;7517;48.400;11.770;2023-02-16T07:55:03;97436.00;;;4.40
14851;BMP180;7517;48.400;11.770;2023-02-16T07:57:30;97439.00;;;4.40
14851;BMP180;7517;48.400;11.770;2023-02-16T07:59:57;97429.00;;;4.40
14851;BMP180;7517;48.400;11.770;2023-02-16T08:02:27;97434.00;;;4.40
14851;BMP180;7517;48.400;11.770;2023-02-16T08:04:54;97440.00;;;4.50
14851;BMP180;7517;48.400;11.770;2023-02-16T08:07:21;97440.00;;;4.50
14851;BMP180;7517;48.400;11.770;2023-02-16T08:09:49;97443.00;;;4.50
14851;BMP180;7517;48.400;11.770;2023-02-16T08:12:16;97449.00;;;4.50
14851;BMP180;7517;48.400;11.770;2023-02-16T08:14:44;97443.00;;;4.60
14851;BMP180;7517;48.400;11.770;2023-02-16T08:17:13;97449.00;;;4.60
14851;BMP180;7517;48.400;11.770;2023-02-16T08:19:42;97446.00;;;4.70
14851;BMP180;7517;48.400;11.770;2023-02-16T08:22:09;97453.00;;;4.80
14851;BMP180;7517;48.400;11.770;2023-02-16T08:24:37;97454.00;;;4.90
14851;BMP180;7517;48.400;11.770;2023-02-16T08:27:05;97449.00;;;5.00
14851;BMP180;7517;48.400;11.770;2023-02-16T08:29:32;97462.00;;;5.10
14851;BMP180;7517;48.400;11.770;2023-02-16T08:32:01;97451.00;;;5.10
14851;BMP180;7517;48.400;11.770;2023-02-16T08:34:33;97456.00;;;5.20
14851;BMP180;7517;48.400;11.770;2023-02-16T08:37:02;97448.00;;;5.30
14851;BMP180;7517;48.400;11.770;2023-02-16T08:39:31;97459.00;;;5.30
14851;BMP180;7517;48.400;11.770;2023-02-16T08:42:00;97459.00;;;5.40
14851;BMP180;7517;48.400;11.770;2023-02-16T08:44:28;97456.00;;;5.40
14851;BMP180;7517;48.400;11.770;2023-02-16T08:46:59;97465.00;;;5.50
14851;BMP180;7517;48.400;11.770;2023-02-16T08:49:27;97459.00;;;5.60
14851;BMP180;7517;48.400;11.770;2023-02-16T08:51:57;97465.00;;;5.60
14851;BMP180;7517;48.400;11.770;2023-02-16T08:54:29;97465.00;;;5.70
14851;BMP180;7517;48.400;11.770;2023-02-16T08:56:58;97455.00;;;5.80
14851;BMP180;7517;48.400;11.770;2023-02-16T08:59:27;97462.00;;;5.90
14851;BMP180;7517;48.400;11.770;2023-02-16T09:02:02;97457.00;;;6.00
14851;BMP180;7517;48.400;11.770;2023-02-16T09:04:33;97467.00;;;6.10
14851;BMP180;7517;48.400;11.770;2023-02-16T09:07:01;97464.00;;;6.20
14851;BMP180;7517;48.400;11.770;2023-02-16T09:09:30;97456.00;;;6.30
14851;BMP180;7517;48.400;11.770;2023-02-16T09:11:58;97465.00;;;6.40
14851;BMP180;7517;48.400;11.770;2023-02-16T09:14:25;97460.00;;;6.40
14851;BMP180;7517;48.400;11.770;2023-02-16T09:16:53;97453.00;;;6.50
14851;BMP180;7517;48.400;11.770;2023-02-16T09:19:21;97463.00;;;6.60
14851;BMP180;7517;48.400;11.770;2023-02-16T09:21:55;97466.00;;;6.70
14851;BMP180;7517;48.400;11.770;2023-02-16T09:24:22;97468.00;;;6.80
14851;BMP180;7517;48.400;11.770;2023-02-16T09:26:51;97468.00;;;6.90
14851;BMP180;7517;48.400;11.770;2023-02-16T09:29:19;97473.00;;;7.00
14851;BMP180;7517;48.400;11.770;2023-02-16T09:31:46;97471.00;;;7.00
14851;BMP180;7517;48.400;11.770;2023-02-16T09:34:17;97472.00;;;7.10
14851;BMP180;7517;48.400;11.770;2023-02-16T09:36:45;97475.00;;;7.20
14851;BMP180;7517;48.400;11.770;2023-02-16T09:39:14;97479.00;;;7.40
14851;BMP180;7517;48.400;11.770;2023-02-16T09:42:04;97484.00;;;7.50
14851;BMP180;7517;48.400;11.770;2023-02-16T09:44:45;97473.00;;;7.70
14851;BMP180;7517;48.400;11.770;2023-02-16T09:47:21;97472.00;;;7.90
14851;BMP180;7517;48.400;11.770;2023-02-16T09:49:50;97475.00;;;8.00
14851;BMP180;7517;48.400;11.770;2023-02-16T09:52:33;97477.00;;;8.20
14851;BMP180;7517;48.400;11.770;2023-02-16T09:55:06;97475.00;;;8.40
14851;BMP180;7517;48.400;11.770;2023-02-16T09:57:53;97474.00;;;8.60
14851;BMP180;7517;48.400;11.770;2023-02-16T10:00:42;97476.00;;;8.80
14851;BMP180;7517;48.400;11.770;2023-02-16T10:03:39;97485.00;;;9.00
14851;BMP180;7517;48.400;11.770;2023-02-16T10:06:30;97484.00;;;9.30
14851;BMP180;7517;48.400;11.770;2023-02-16T10:09:07;97480.00;;;9.50
14851;BMP180;7517;48.400;11.770;2023-02-16T10:11:41;97490.00;;;9.60
14851;BMP180;7517;48.400;11.770;2023-02-16T10:14:32;97477.00;;;9.70
14851;BMP180;7517;48.400;11.770;2023-02-16T10:17:13;97488.00;;;9.90
14851;BMP180;7517;48.400;11.770;2023-02-16T10:19:48;97481.00;;;10.00
14851;BMP180;7517;48.400;11.770;2023-02-16T10:22:27;97479.00;;;10.10
14851;BMP180;7517;48.400;11.770;2023-02-16T10:25:02;97483.00;;;10.30
14851;BMP180;7517;48.400;11.770;2023-02-16T10:27:37;97481.00;;;10.50
14851;BMP180;7517;48.400;11.770;2023-02-16T10:30:24;97489.00;;;10.70
14851;BMP180;7517;48.400;11.770;2023-02-16T10:33:03;97483.00;;;10.80
14851;BMP180;7517;48.400;11.770;2023-02-16T10:35:44;97492.00;;;11.00
14851;BMP180;7517;48.400;11.770;2023-02-16T10:38:20;97487.00;;;11.20
14851;BMP180;7517;48.400;11.770;2023-02-16T10:41:00;97475.00;;;11.30
14851;BMP180;7517;48.400;11.770;2023-02-16T10:43:42;97481.00;;;11.50
14851;BMP180;7517;48.400;11.770;2023-02-16T10:46:20;97479.00;;;11.60
14851;BMP180;7517;48.400;11.770;2023-02-16T10:48:51;97473.00;;;11.80
14851;BMP180;7517;48.400;11.770;2023-02-16T10:51:24;97475.00;;;11.90
14851;BMP180;7517;48.400;11.770;2023-02-16T10:54:00;97477.00;;;12.10
14851;BMP180;7517;48.400;11.770;2023-02-16T10:56:49;97471.00;;;12.20
14851;BMP180;7517;48.400;11.770;2023-02-16T10:59:22;97469.00;;;12.40
14851;BMP180;7517;48.400;11.770;2023-02-16T11:01:54;97471.00;;;12.50
14851;BMP180;7517;48.400;11.770;2023-02-16T11:04:37;97467.00;;;12.60
14851;BMP180;7517;48.400;11.770;2023-02-16T11:07:08;97463.00;;;12.70
14851;BMP180;7517;48.400;11.770;2023-02-16T11:09:37;97455.00;;;12.70
14851;BMP180;7517;48.400;11.770;2023-02-16T11:12:25;97456.00;;;12.80
14851;BMP180;7517;48.400;11.770;2023-02-16T11:14:58;97458.00;;;12.80
14851;BMP180;7517;48.400;11.770;2023-02-16T11:17:31;97453.00;;;12.80
14851;BMP180;7517;48.400;11.770;2023-02-16T11:20:02;97447.00;;;12.90
14851;BMP180;7517;48.400;11.770;2023-02-16T11:22:33;97447.00;;;12.90
14851;BMP180;7517;48.400;11.770;2023-02-16T11:25:24;97449.00;;;12.90
14851;BMP180;7517;48.400;11.770;2023-02-16T11:27:55;97437.00;;;12.90
14851;BMP180;7517;48.400;11.770;2023-02-16T11:30:32;97424.00;;;12.90
14851;BMP180;7517;48.400;11.770;2023-02-16T11:33:19;97419.00;;;12.90
14851;BMP180;7517;48.400;11.770;2023-02-16T11:35:47;97416.00;;;13.00
14851;BMP180;7517;48.400;11.770;2023-02-16T11:38:32;97413.00;;;13.00
14851;BMP180;7517;48.400;11.770;2023-02-16T11:41:04;97414.00;;;13.00
14851;BMP180;7517;48.400;11.770;2023-02-16T11:43:36;97414.00;;;13.00
14851;BMP180;7517;48.400;11.770;2023-02-16T11:46:14;97411.00;;;13.10
14851;BMP180;7517;48.400;11.770;2023-02-16T11:48:46;97409.00;;;13.10
14851;BMP180;7517;48.400;11.770;2023-02-16T11:51:31;97411.00;;;13.10
14851;BMP180;7517;48.400;11.770;2023-02-16T11:54:03;97412.00;;;13.20
14851;BMP180;7517;48.400;11.770;2023-02-16T11:56:35;97408.00;;;13.20
14851;BMP180;7517;48.400;11.770;2023-02-16T11:59:16;97399.00;;;13.20
14851;BMP180;7517;48.400;11.770;2023-02-16T12:05:22;97395.00;;;13.30
14851;BMP180;7517;48.400;11.770;2023-02-16T12:08:26;97389.00;;;13.40
14851;BMP180;7517;48.400;11.770;2023-02-16T12:11:16;97397.00;;;13.40
14851;BMP180;7517;48.400;11.770;2023-02-16T12:13:58;97384.00;;;13.50
14851;BMP180;7517;48.400;11.770;2023-02-16T12:16:39;97376.00;;;13.60
14851;BMP180;7517;48.400;11.770;2023-02-16T12:19:32;97381.00;;;13.70
14851;BMP180;7517;48.400;11.770;2023-02-16T12:22:25;97375.00;;;13.80
14851;BMP180;7517;48.400;11.770;2023-02-16T12:25:25;97378.00;;;13.90
14851;BMP180;7517;48.400;11.770;2023-02-16T12:28:07;97369.00;;;14.00
14851;BMP180;7517;48.400;11.770;2023-02-16T12:30:51;97357.00;;;14.00
14851;BMP180;7517;48.400;11.770;2023-02-16T12:33:37;97354.00;;;14.10
14851;BMP180;7517;48.400;11.770;2023-02-16T12:36:43;97354.00;;;14.20
14851;BMP180;7517;48.400;11.770;2023-02-16T12:39:21;97354.00;;;14.20
14851;BMP180;7517;48.400;11.770;2023-02-16T12:42:32;97351.00;;;14.30
14851;BMP180;7517;48.400;11.770;2023-02-16T12:45:09;97356.00;;;14.40
14851;BMP180;7517;48.400;11.770;2023-02-16T12:47:45;97341.00;;;14.50
14851;BMP180;7517;48.400;11.770;2023-02-16T12:50:19;97346.00;;;14.50
14851;BMP180;7517;48.400;11.770;2023-02-16T12:52:53;97337.00;;;14.60
14851;BMP180;7517;48.400;11.770;2023-02-16T12:55:27;97345.00;;;14.70
14851;BMP180;7517;48.400;11.770;2023-02-16T12:58:07;97332.00;;;14.80
14851;BMP180;7517;48.400;11.770;2023-02-16T13:00:42;97324.00;;;14.90
14851;BMP180;7517;48.400;11.770;2023-02-16T13:03:35;97334.00;;;15.00
14851;BMP180;7517;48.400;11.770;2023-02-16T13:06:19;97327.00;;;15.10
14851;BMP180;7517;48.400;11.770;2023-02-16T13:08:56;97320.00;;;15.20
14851;BMP180;7517;48.400;11.770;2023-02-16T13:11:36;97331.00;;;15.30
14851;BMP180;7517;48.400;11.770;2023-02-16T13:14:13;97327.00;;;15.30
14851;BMP180;7517;48.400;11.770;2023-02-16T13:16:50;97323.00;;;15.40
14851;BMP180;7517;48.400;11.770;2023-02-16T13:19:20;97324.00;;;15.40
14851;BMP180;7517;48.400;11.770;2023-02-16T13:22:35;97318.00;;;15.40
14851;BMP180;7517;48.400;11.770;2023-02-16T13:25:50;97321.00;;;15.50
14851;BMP180;7517;48.400;11.770;2023-02-16T13:28:45;97308.00;;;15.50
14851;BMP180;7517;48.400;11.770;2023-02-16T13:31:31;97304.00;;;15.60
14851;BMP180;7517;48.400;11.770;2023-02-16T13:34:23;97310.00;;;15.70
14851;BMP180;7517;48.400;11.770;2023-02-16T13:37:07;97310.00;;;15.70
14851;BMP180;7517;48.400;11.770;2023-02-16T13:40:24;97319.00;;;15.80
14851;BMP180;7517;48.400;11.770;2023-02-16T13:43:16;97319.00;;;15.80
14851;BMP180;7517;48.400;11.770;2023-02-16T13:45:51;97314.00;;;15.90
14851;BMP180;7517;48.400;11.770;2023-02-16T13:48:25;97309.00;;;16.00
14851;BMP180;7517;48.400;11.770;2023-02-16T13:50:59;97300.00;;;16.00
14851;BMP180;7517;48.400;11.770;2023-02-16T13:53:34;97306.00;;;16.10
14851;BMP180;7517;48.400;11.770;2023-02-16T13:56:35;97317.00;;;16.10
14851;BMP180;7517;48.400;11.770;2023-02-16T13:59:47;97310.00;;;16.20
14851;BMP180;7517;48.400;11.770;2023-02-16T14:02:56;97311.00;;;16.20
14851;BMP180;7517;48.400;11.770;2023-02-16T14:05:39;97304.00;;;16.30
14851;BMP180;7517;48.400;11.770;2023-02-16T14:08:21;97312.00;;;16.40
14851;BMP180;7517;48.400;11.770;2023-02-16T14:11:09;97306.00;;;16.40
14851;BMP180;7517;48.400;11.770;2023-02-16T14:13:49;97305.00;;;16.40
14851;BMP180;7517;48.400;11.770;2023-02-16T14:16:37;97314.00;;;16.40
14851;BMP180;7517;48.400;11.770;2023-02-16T14:19:18;97306.00;;;16.50
14851;BMP180;7517;48.400;11.770;2023-02-16T14:21:53;97298.00;;;16.50
14851;BMP180;7517;48.400;11.770;2023-02-16T14:24:32;97298.00;;;16.60
14851;BMP180;7517;48.400;11.770;2023-02-16T14:27:08;97303.00;;;16.60
14851;BMP180;7517;48.400;11.770;2023-02-16T14:29:41;97294.00;;;16.60
14851;BMP180;7517;48.400;11.770;2023-02-16T14:32:24;97296.00;;;16.60
14851;BMP180;7517;48.400;11.770;2023-02-16T14:35:05;97296.00;;;16.70
14851;BMP180;7517;48.400;11.770;2023-02-16T14:37:37;97299.00;;;16.70
14851;BMP180;7517;48.400;11.770;2023-02-16T14:40:20;97299.00;;;16.70
14851;BMP180;7517;48.400;11.770;2023-02-16T14:42:57;97295.00;;;16.70
14851;BMP180;7517;48.400;11.770;2023-02-16T14:46:16;97297.00;;;16.70
14851;BMP180;7517;48.400;11.770;2023-02-16T14:49:15;97305.00;;;16.70
14851;BMP180;7517;48.400;11.770;2023-02-16T14:52:31;97294.00;;;16.70
14851;BMP180;7517;48.400;11.770;2023-02-16T14:58:27;97295.00;;;16.70
14851;BMP180;7517;48.400;11.770;2023-02-16T15:01:04;97290.00;;;16.80
14851;BMP180;7517;48.400;11.770;2023-02-16T15:03:42;97288.00;;;16.80
14851;BMP180;7517;48.400;11.770;2023-02-16T15:06:24;97283.00;;;16.80
14851;BMP180;7517;48.400;11.770;2023-02-16T15:08:58;97285.00;;;16.80
14851;BMP180;7517;48.400;11.770;2023-02-16T15:11:33;97283.00;;;16.80